sensor_id;sensor_type;location;lat;lon;timestamp;P1;durP1;ratioP1;P2;durP2;ratioP2
8100;SDS011;4093;53.470;9.832;2023-09-19T00:00:38;3.30;;;2.72;;
8100;SDS011;4093;53.470;9.832;2023-09-19T00:03:07;4.72;;;2.60;;
8100;SDS011;4093;53.470;9.832;2023-09-19T00:05:37;3.72;;;2.90;;
8100;SDS011;4093;53.470;9.832;2023-09-19T00:08:05;4.32;;;2.65;;
8100;SDS011;4093;53.470;9.832;2023-09-19T00:10:33;4.55;;;2.90;;
8100;SDS011;4093;53.470;9.832;2023-09-19T00:13:02;5.55;;;3.10;;
8100;SDS011;4093;53.470;9.832;2023-09-19T00:15:37;4.05;;;2.90;;
8100;SDS011;4093;53.470;9.832;2023-09-19T00:18:06;3.33;;;3.03;;
8100;SDS011;4093;53.470;9.832;2023-09-19T00:20:35;4.03;;;2.60;;
8100;SDS011;4093;53.470;9.832;2023-09-19T00:23:05;3.90;;;2.95;;
8100;SDS011;4093;53.470;9.832;2023-09-19T00:25:34;3.75;;;2.42;;
8100;SDS011;4093;53.470;9.832;2023-09-19T00:28:03;4.70;;;2.85;;
8100;SDS011;4093;53.470;9.832;2023-09-19T00:30:33;4.32;;;3.00;;
8100;SDS011;4093;53.470;9.832;2023-09-19T00:33:03;6.03;;;3.38;;
8100;SDS011;4093;53.470;9.832;2023-09-19T00:35:32;6.95;;;3.55;;
8100;SDS011;4093;53.470;9.832;2023-09-19T00:38:00;5.88;;;3.00;;
8100;SDS011;4093;53.470;9.832;2023-09-19T00:40:30;4.10;;;3.13;;
8100;SDS011;4093;53.470;9.832;2023-09-19T00:42:59;5.03;;;3.35;;
8100;SDS011;4093;53.470;9.832;2023-09-19T00:45:27;6.28;;;3.13;;
8100;SDS011;4093;53.470;9.832;2023-09-19T00:47:55;3.45;;;2.75;;
8100;SDS011;4093;53.470;9.832;2023-09-19T00:50:25;5.72;;;3.60;;
8100;SDS011;4093;53.470;9.832;2023-09-19T00:52:55;4.05;;;3.13;;
8100;SDS011;4093;53.470;9.832;2023-09-19T00:55:24;7.38;;;3.50;;
8100;SDS011;4093;53.470;9.832;2023-09-19T00:57:52;6.47;;;3.38;;
8100;SDS011;4093;53.470;9.832;2023-09-19T01:00:22;4.63;;;3.30;;
8100;SDS011;4093;53.470;9.832;2023-09-19T01:02:51;5.63;;;3.60;;
8100;SDS011;4093;53.470;9.832;2023-09-19T01:05:19;9.07;;;3.97;;
8100;SDS011;4093;53.470;9.832;2023-09-19T01:07:48;6.68;;;4.15;;
8100;SDS011;4093;53.470;9.832;2023-09-19T01:10:16;5.53;;;4.00;;
8100;SDS011;4093;53.470;9.832;2023-09-19T01:12:52;5.97;;;3.28;;
8100;SDS011;4093;53.470;9.832;2023-09-19T01:15:28;8.30;;;4.00;;
8100;SDS011;4093;53.470;9.832;2023-09-19T01:18:09;5.20;;;4.07;;
8100;SDS011;4093;53.470;9.832;2023-09-19T01:20:45;7.60;;;4.03;;
8100;SDS011;4093;53.470;9.832;2023-09-19T01:23:23;8.55;;;4.38;;
8100;SDS011;4093;53.470;9.832;2023-09-19T01:26:18;5.22;;;3.85;;
8100;SDS011;4093;53.470;9.832;2023-09-19T01:29:01;4.82;;;3.58;;
8100;SDS011;4093;53.470;9.832;2023-09-19T01:31:47;7.72;;;4.03;;
8100;SDS011;4093;53.470;9.832;2023-09-19T01:34:17;5.22;;;3.88;;
8100;SDS011;4093;53.470;9.832;2023-09-19T01:36:45;4.80;;;3.75;;
8100;SDS011;4093;53.470;9.832;2023-09-19T01:39:13;7.80;;;3.88;;
8100;SDS011;4093;53.470;9.832;2023-09-19T01:41:47;6.82;;;4.00;;
8100;SDS011;4093;53.470;9.832;2023-09-19T01:44:23;7.30;;;3.85;;
8100;SDS011;4093;53.470;9.832;2023-09-19T01:46:58;7.07;;;4.40;;
8100;SDS011;4093;53.470;9.832;2023-09-19T01:49:33;5.68;;;3.90;;
8100;SDS011;4093;53.470;9.832;2023-09-19T01:52:13;4.90;;;3.95;;
8100;SDS011;4093;53.470;9.832;2023-09-19T01:54:46;8.52;;;4.47;;
8100;SDS011;4093;53.470;9.832;2023-09-19T01:57:20;9.27;;;4.35;;
8100;SDS011;4093;53.470;9.832;2023-09-19T02:00:00;6.75;;;4.63;;
8100;SDS011;4093;53.470;9.832;2023-09-19T02:02:34;8.10;;;4.78;;
8100;SDS011;4093;53.470;9.832;2023-09-19T02:05:04;9.73;;;4.90;;
8100;SDS011;4093;53.470;9.832;2023-09-19T02:07:32;9.52;;;4.97;;
8100;SDS011;4093;53.470;9.832;2023-09-19T02:10:02;7.22;;;5.00;;
8100;SDS011;4093;53.470;9.832;2023-09-19T02:12:31;6.27;;;4.33;;
8100;SDS011;4093;53.470;9.832;2023-09-19T02:14:59;7.38;;;4.55;;
8100;SDS011;4093;53.470;9.832;2023-09-19T02:17:27;6.53;;;4.60;;
8100;SDS011;4093;53.470;9.832;2023-09-19T02:19:56;7.63;;;4.38;;
8100;SDS011;4093;53.470;9.832;2023-09-19T02:22:25;9.20;;;4.87;;
8100;SDS011;4093;53.470;9.832;2023-09-19T02:24:52;6.57;;;4.30;;
8100;SDS011;4093;53.470;9.832;2023-09-19T02:27:20;6.88;;;4.03;;
8100;SDS011;4093;53.470;9.832;2023-09-19T02:29:48;8.60;;;4.00;;
8100;SDS011;4093;53.470;9.832;2023-09-19T02:32:16;7.13;;;4.13;;
8100;SDS011;4093;53.470;9.832;2023-09-19T02:34:44;5.47;;;3.77;;
8100;SDS011;4093;53.470;9.832;2023-09-19T02:37:14;7.93;;;4.60;;
8100;SDS011;4093;53.470;9.832;2023-09-19T02:39:42;6.17;;;3.93;;
8100;SDS011;4093;53.470;9.832;2023-09-19T02:42:10;8.43;;;4.17;;
8100;SDS011;4093;53.470;9.832;2023-09-19T02:44:38;9.53;;;4.30;;
8100;SDS011;4093;53.470;9.832;2023-09-19T02:47:06;8.10;;;4.13;;
8100;SDS011;4093;53.470;9.832;2023-09-19T02:49:34;6.50;;;3.70;;
8100;SDS011;4093;53.470;9.832;2023-09-19T02:52:02;7.47;;;3.80;;
8100;SDS011;4093;53.470;9.832;2023-09-19T02:54:32;7.22;;;3.72;;
8100;SDS011;4093;53.470;9.832;2023-09-19T02:57:00;7.93;;;3.60;;
8100;SDS011;4093;53.470;9.832;2023-09-19T02:59:31;8.63;;;4.00;;
8100;SDS011;4093;53.470;9.832;2023-09-19T03:01:59;6.17;;;3.57;;
8100;SDS011;4093;53.470;9.832;2023-09-19T03:04:29;6.53;;;3.97;;
8100;SDS011;4093;53.470;9.832;2023-09-19T03:06:57;5.37;;;3.47;;
8100;SDS011;4093;53.470;9.832;2023-09-19T03:09:26;8.77;;;3.70;;
8100;SDS011;4093;53.470;9.832;2023-09-19T03:11:56;6.53;;;3.87;;
8100;SDS011;4093;53.470;9.832;2023-09-19T03:14:24;7.70;;;3.70;;
8100;SDS011;4093;53.470;9.832;2023-09-19T03:16:56;8.33;;;3.87;;
8100;SDS011;4093;53.470;9.832;2023-09-19T03:19:24;9.32;;;3.90;;
8100;SDS011;4093;53.470;9.832;2023-09-19T03:21:52;5.43;;;3.10;;
8100;SDS011;4093;53.470;9.832;2023-09-19T03:24:20;7.13;;;3.40;;
8100;SDS011;4093;53.470;9.832;2023-09-19T03:26:49;6.63;;;3.17;;
8100;SDS011;4093;53.470;9.832;2023-09-19T03:29:18;6.03;;;2.80;;
8100;SDS011;4093;53.470;9.832;2023-09-19T03:31:46;7.70;;;3.15;;
8100;SDS011;4093;53.470;9.832;2023-09-19T03:34:14;4.82;;;2.55;;
8100;SDS011;4093;53.470;9.832;2023-09-19T03:36:43;6.93;;;2.60;;
8100;SDS011;4093;53.470;9.832;2023-09-19T03:39:11;4.57;;;2.65;;
8100;SDS011;4093;53.470;9.832;2023-09-19T03:41:42;4.95;;;2.60;;
8100;SDS011;4093;53.470;9.832;2023-09-19T03:44:09;4.07;;;2.50;;
8100;SDS011;4093;53.470;9.832;2023-09-19T03:46:38;2.90;;;2.22;;
8100;SDS011;4093;53.470;9.832;2023-09-19T03:49:06;3.97;;;2.33;;
8100;SDS011;4093;53.470;9.832;2023-09-19T03:51:35;4.67;;;2.20;;
8100;SDS011;4093;53.470;9.832;2023-09-19T03:54:03;10.73;;;2.83;;
8100;SDS011;4093;53.470;9.832;2023-09-19T03:56:31;3.77;;;2.40;;
8100;SDS011;4093;53.470;9.832;2023-09-19T03:58:59;3.33;;;2.50;;
8100;SDS011;4093;53.470;9.832;2023-09-19T04:01:27;4.77;;;2.33;;
8100;SDS011;4093;53.470;9.832;2023-09-19T04:03:58;4.38;;;2.35;;
8100;SDS011;4093;53.470;9.832;2023-09-19T04:06:34;5.50;;;2.73;;
8100;SDS011;4093;53.470;9.832;2023-09-19T04:09:02;6.00;;;2.50;;
8100;SDS011;4093;53.470;9.832;2023-09-19T04:11:30;6.40;;;2.80;;
8100;SDS011;4093;53.470;9.832;2023-09-19T04:13:58;5.53;;;2.40;;
8100;SDS011;4093;53.470;9.832;2023-09-19T04:16:26;4.78;;;2.33;;
8100;SDS011;4093;53.470;9.832;2023-09-19T04:18:54;6.20;;;2.83;;
8100;SDS011;4093;53.470;9.832;2023-09-19T04:21:23;4.85;;;2.70;;
8100;SDS011;4093;53.470;9.832;2023-09-19T04:23:51;6.13;;;2.40;;
8100;SDS011;4093;53.470;9.832;2023-09-19T04:26:18;5.05;;;2.38;;
8100;SDS011;4093;53.470;9.832;2023-09-19T04:28:46;6.67;;;2.70;;
8100;SDS011;4093;53.470;9.832;2023-09-19T04:31:14;3.97;;;2.05;;
8100;SDS011;4093;53.470;9.832;2023-09-19T04:33:43;6.83;;;2.60;;
8100;SDS011;4093;53.470;9.832;2023-09-19T04:36:10;7.63;;;2.63;;
8100;SDS011;4093;53.470;9.832;2023-09-19T04:39:00;8.00;;;2.87;;
8100;SDS011;4093;53.470;9.832;2023-09-19T04:41:31;7.87;;;2.87;;
8100;SDS011;4093;53.470;9.832;2023-09-19T04:43:58;7.60;;;2.57;;
8100;SDS011;4093;53.470;9.832;2023-09-19T04:46:26;5.77;;;2.53;;
8100;SDS011;4093;53.470;9.832;2023-09-19T04:48:54;8.13;;;2.60;;
8100;SDS011;4093;53.470;9.832;2023-09-19T04:51:22;5.67;;;2.30;;
8100;SDS011;4093;53.470;9.832;2023-09-19T04:53:49;7.53;;;2.70;;
8100;SDS011;4093;53.470;9.832;2023-09-19T04:56:18;5.27;;;2.63;;
8100;SDS011;4093;53.470;9.832;2023-09-19T04:58:47;7.70;;;2.90;;
8100;SDS011;4093;53.470;9.832;2023-09-19T05:01:15;5.57;;;2.83;;
8100;SDS011;4093;53.470;9.832;2023-09-19T05:03:43;7.40;;;2.93;;
8100;SDS011;4093;53.470;9.832;2023-09-19T05:06:11;8.23;;;2.83;;
8100;SDS011;4093;53.470;9.832;2023-09-19T05:08:39;7.30;;;2.60;;
8100;SDS011;4093;53.470;9.832;2023-09-19T05:11:06;9.27;;;2.80;;
8100;SDS011;4093;53.470;9.832;2023-09-19T05:13:36;5.73;;;2.40;;
8100;SDS011;4093;53.470;9.832;2023-09-19T05:16:04;7.30;;;2.57;;
8100;SDS011;4093;53.470;9.832;2023-09-19T05:18:32;7.37;;;2.80;;
8100;SDS011;4093;53.470;9.832;2023-09-19T05:21:01;7.33;;;2.67;;
8100;SDS011;4093;53.470;9.832;2023-09-19T05:23:29;8.43;;;2.77;;
8100;SDS011;4093;53.470;9.832;2023-09-19T05:25:57;6.33;;;3.07;;
8100;SDS011;4093;53.470;9.832;2023-09-19T05:28:26;7.70;;;2.80;;
8100;SDS011;4093;53.470;9.832;2023-09-19T05:30:55;7.53;;;2.70;;
8100;SDS011;4093;53.470;9.832;2023-09-19T05:33:25;7.00;;;2.97;;
8100;SDS011;4093;53.470;9.832;2023-09-19T05:35:53;8.63;;;2.87;;
8100;SDS011;4093;53.470;9.832;2023-09-19T05:38:22;8.00;;;2.63;;
8100;SDS011;4093;53.470;9.832;2023-09-19T05:40:50;5.37;;;2.77;;
8100;SDS011;4093;53.470;9.832;2023-09-19T05:43:18;9.70;;;2.83;;
8100;SDS011;4093;53.470;9.832;2023-09-19T05:45:46;10.63;;;3.00;;
8100;SDS011;4093;53.470;9.832;2023-09-19T05:48:15;4.23;;;2.30;;
8100;SDS011;4093;53.470;9.832;2023-09-19T05:50:43;4.97;;;2.70;;
8100;SDS011;4093;53.470;9.832;2023-09-19T05:53:13;6.93;;;2.63;;
8100;SDS011;4093;53.470;9.832;2023-09-19T05:55:41;7.90;;;2.87;;
8100;SDS011;4093;53.470;9.832;2023-09-19T05:58:09;8.50;;;3.33;;
8100;SDS011;4093;53.470;9.832;2023-09-19T06:00:40;5.30;;;3.33;;
8100;SDS011;4093;53.470;9.832;2023-09-19T06:03:10;7.20;;;2.93;;
8100;SDS011;4093;53.470;9.832;2023-09-19T06:05:41;8.83;;;3.23;;
8100;SDS011;4093;53.470;9.832;2023-09-19T06:08:09;14.33;;;3.40;;
8100;SDS011;4093;53.470;9.832;2023-09-19T06:10:37;4.67;;;2.67;;
8100;SDS011;4093;53.470;9.832;2023-09-19T06:13:05;10.23;;;3.13;;
8100;SDS011;4093;53.470;9.832;2023-09-19T06:15:36;6.30;;;2.42;;
8100;SDS011;4093;53.470;9.832;2023-09-19T06:18:04;8.88;;;3.42;;
8100;SDS011;4093;53.470;9.832;2023-09-19T06:20:32;7.10;;;3.28;;
8100;SDS011;4093;53.470;9.832;2023-09-19T06:23:02;5.88;;;2.45;;
8100;SDS011;4093;53.470;9.832;2023-09-19T06:25:30;11.02;;;2.80;;
8100;SDS011;4093;53.470;9.832;2023-09-19T06:27:58;5.72;;;2.63;;
8100;SDS011;4093;53.470;9.832;2023-09-19T06:30:25;7.80;;;2.80;;
8100;SDS011;4093;53.470;9.832;2023-09-19T06:32:55;8.98;;;2.95;;
8100;SDS011;4093;53.470;9.832;2023-09-19T06:35:24;12.55;;;3.60;;
8100;SDS011;4093;53.470;9.832;2023-09-19T06:37:53;9.20;;;2.95;;
8100;SDS011;4093;53.470;9.832;2023-09-19T06:40:26;9.48;;;3.55;;
8100;SDS011;4093;53.470;9.832;2023-09-19T06:42:54;8.77;;;3.30;;
8100;SDS011;4093;53.470;9.832;2023-09-19T06:45:22;8.35;;;3.20;;
8100;SDS011;4093;53.470;9.832;2023-09-19T06:47:53;9.32;;;3.30;;
8100;SDS011;4093;53.470;9.832;2023-09-19T06:50:24;9.15;;;3.08;;
8100;SDS011;4093;53.470;9.832;2023-09-19T06:52:54;7.05;;;3.00;;
8100;SDS011;4093;53.470;9.832;2023-09-19T06:55:26;7.95;;;2.97;;
8100;SDS011;4093;53.470;9.832;2023-09-19T06:57:58;7.85;;;2.95;;
8100;SDS011;4093;53.470;9.832;2023-09-19T07:00:26;10.18;;;3.38;;
8100;SDS011;4093;53.470;9.832;2023-09-19T07:02:55;11.23;;;3.30;;
8100;SDS011;4093;53.470;9.832;2023-09-19T07:05:25;8.17;;;3.00;;
8100;SDS011;4093;53.470;9.832;2023-09-19T07:07:53;7.30;;;3.10;;
8100;SDS011;4093;53.470;9.832;2023-09-19T07:10:22;12.83;;;3.57;;
8100;SDS011;4093;53.470;9.832;2023-09-19T07:12:57;9.67;;;3.17;;
8100;SDS011;4093;53.470;9.832;2023-09-19T07:15:25;10.53;;;3.50;;
8100;SDS011;4093;53.470;9.832;2023-09-19T07:17:53;12.85;;;3.33;;
8100;SDS011;4093;53.470;9.832;2023-09-19T07:20:23;7.40;;;3.20;;
8100;SDS011;4093;53.470;9.832;2023-09-19T07:22:53;7.22;;;3.20;;
8100;SDS011;4093;53.470;9.832;2023-09-19T07:25:21;11.80;;;3.60;;
8100;SDS011;4093;53.470;9.832;2023-09-19T07:27:49;11.75;;;3.78;;
8100;SDS011;4093;53.470;9.832;2023-09-19T07:30:18;9.50;;;3.42;;
8100;SDS011;4093;53.470;9.832;2023-09-19T07:32:47;9.70;;;3.60;;
8100;SDS011;4093;53.470;9.832;2023-09-19T07:35:14;11.10;;;3.60;;
8100;SDS011;4093;53.470;9.832;2023-09-19T07:37:42;10.07;;;3.20;;
8100;SDS011;4093;53.470;9.832;2023-09-19T07:40:11;7.90;;;3.37;;
8100;SDS011;4093;53.470;9.832;2023-09-19T07:42:39;8.82;;;3.17;;
8100;SDS011;4093;53.470;9.832;2023-09-19T07:45:07;8.57;;;3.30;;
8100;SDS011;4093;53.470;9.832;2023-09-19T07:47:37;7.18;;;3.08;;
8100;SDS011;4093;53.470;9.832;2023-09-19T07:50:05;10.33;;;3.60;;
8100;SDS011;4093;53.470;9.832;2023-09-19T07:52:33;8.83;;;3.40;;
8100;SDS011;4093;53.470;9.832;2023-09-19T07:55:01;9.97;;;3.47;;
8100;SDS011;4093;53.470;9.832;2023-09-19T07:57:35;13.50;;;3.95;;
8100;SDS011;4093;53.470;9.832;2023-09-19T08:00:04;11.63;;;3.23;;
8100;SDS011;4093;53.470;9.832;2023-09-19T08:02:34;11.70;;;3.42;;
8100;SDS011;4093;53.470;9.832;2023-09-19T08:05:06;12.77;;;4.00;;
8100;SDS011;4093;53.470;9.832;2023-09-19T08:07:36;5.73;;;3.33;;
8100;SDS011;4093;53.470;9.832;2023-09-19T08:10:04;11.53;;;3.27;;
8100;SDS011;4093;53.470;9.832;2023-09-19T08:12:39;8.20;;;3.33;;
8100;SDS011;4093;53.470;9.832;2023-09-19T08:15:12;14.73;;;4.20;;
8100;SDS011;4093;53.470;9.832;2023-09-19T08:17:41;9.30;;;3.33;;
8100;SDS011;4093;53.470;9.832;2023-09-19T08:20:10;8.68;;;3.63;;
8100;SDS011;4093;53.470;9.832;2023-09-19T08:22:43;10.20;;;3.80;;
8100;SDS011;4093;53.470;9.832;2023-09-19T08:25:14;11.48;;;3.40;;
8100;SDS011;4093;53.470;9.832;2023-09-19T08:27:44;9.65;;;3.40;;
8100;SDS011;4093;53.470;9.832;2023-09-19T08:30:14;11.77;;;3.97;;
8100;SDS011;4093;53.470;9.832;2023-09-19T08:32:42;7.40;;;3.60;;
8100;SDS011;4093;53.470;9.832;2023-09-19T08:35:11;9.07;;;3.50;;
8100;SDS011;4093;53.470;9.832;2023-09-19T08:37:39;7.73;;;3.43;;
8100;SDS011;4093;53.470;9.832;2023-09-19T08:40:08;11.27;;;4.17;;
8100;SDS011;4093;53.470;9.832;2023-09-19T08:42:49;11.30;;;4.07;;
8100;SDS011;4093;53.470;9.832;2023-09-19T08:45:17;8.57;;;3.78;;
8100;SDS011;4093;53.470;9.832;2023-09-19T08:47:45;11.20;;;3.47;;
8100;SDS011;4093;53.470;9.832;2023-09-19T08:50:19;8.77;;;3.60;;
8100;SDS011;4093;53.470;9.832;2023-09-19T08:52:50;9.70;;;3.50;;
8100;SDS011;4093;53.470;9.832;2023-09-19T08:55:22;8.52;;;3.80;;
8100;SDS011;4093;53.470;9.832;2023-09-19T08:57:57;13.77;;;4.30;;
8100;SDS011;4093;53.470;9.832;2023-09-19T09:00:28;14.65;;;4.50;;
8100;SDS011;4093;53.470;9.832;2023-09-19T09:02:56;8.48;;;3.25;;
8100;SDS011;4093;53.470;9.832;2023-09-19T09:05:28;7.22;;;3.55;;
8100;SDS011;4093;53.470;9.832;2023-09-19T09:07:58;10.23;;;3.15;;
8100;SDS011;4093;53.470;9.832;2023-09-19T09:10:27;11.32;;;3.60;;
8100;SDS011;4093;53.470;9.832;2023-09-19T09:12:55;7.27;;;2.97;;
8100;SDS011;4093;53.470;9.832;2023-09-19T09:15:25;9.40;;;2.85;;
8100;SDS011;4093;53.470;9.832;2023-09-19T09:17:57;9.20;;;3.20;;
8100;SDS011;4093;53.470;9.832;2023-09-19T09:20:27;7.20;;;3.25;;
8100;SDS011;4093;53.470;9.832;2023-09-19T09:22:56;6.55;;;3.30;;
8100;SDS011;4093;53.470;9.832;2023-09-19T09:28:19;8.98;;;3.22;;
8100;SDS011;4093;53.470;9.832;2023-09-19T09:30:48;6.93;;;2.97;;
8100;SDS011;4093;53.470;9.832;2023-09-19T09:33:16;10.15;;;3.45;;
8100;SDS011;4093;53.470;9.832;2023-09-19T09:35:52;13.30;;;3.40;;
8100;SDS011;4093;53.470;9.832;2023-09-19T09:38:23;7.78;;;3.30;;
8100;SDS011;4093;53.470;9.832;2023-09-19T09:40:59;9.73;;;3.20;;
8100;SDS011;4093;53.470;9.832;2023-09-19T09:43:28;8.02;;;3.58;;
8100;SDS011;4093;53.470;9.832;2023-09-19T09:46:07;8.75;;;3.13;;
8100;SDS011;4093;53.470;9.832;2023-09-19T09:48:59;9.10;;;3.30;;
8100;SDS011;4093;53.470;9.832;2023-09-19T09:51:46;8.27;;;2.95;;
8100;SDS011;4093;53.470;9.832;2023-09-19T09:54:24;7.93;;;2.97;;
8100;SDS011;4093;53.470;9.832;2023-09-19T09:56:59;8.05;;;3.25;;
8100;SDS011;4093;53.470;9.832;2023-09-19T09:59:47;8.50;;;3.15;;
8100;SDS011;4093;53.470;9.832;2023-09-19T10:02:17;10.88;;;3.65;;
8100;SDS011;4093;53.470;9.832;2023-09-19T10:04:52;9.82;;;2.67;;
8100;SDS011;4093;53.470;9.832;2023-09-19T10:07:27;7.50;;;2.70;;
8100;SDS011;4093;53.470;9.832;2023-09-19T10:09:58;11.07;;;2.97;;
8100;SDS011;4093;53.470;9.832;2023-09-19T10:12:43;6.78;;;2.88;;
8100;SDS011;4093;53.470;9.832;2023-09-19T10:15:16;8.38;;;2.58;;
8100;SDS011;4093;53.470;9.832;2023-09-19T10:17:47;8.05;;;2.92;;
8100;SDS011;4093;53.470;9.832;2023-09-19T10:20:16;7.88;;;3.05;;
8100;SDS011;4093;53.470;9.832;2023-09-19T10:23:01;5.63;;;2.50;;
8100;SDS011;4093;53.470;9.832;2023-09-19T10:25:36;11.20;;;3.47;;
8100;SDS011;4093;53.470;9.832;2023-09-19T10:28:05;6.35;;;2.70;;
8100;SDS011;4093;53.470;9.832;2023-09-19T10:30:40;6.95;;;2.83;;
8100;SDS011;4093;53.470;9.832;2023-09-19T10:33:11;9.23;;;3.22;;
8100;SDS011;4093;53.470;9.832;2023-09-19T10:35:41;6.05;;;2.85;;
8100;SDS011;4093;53.470;9.832;2023-09-19T10:38:13;8.02;;;2.90;;
8100;SDS011;4093;53.470;9.832;2023-09-19T10:40:45;6.90;;;3.00;;
8100;SDS011;4093;53.470;9.832;2023-09-19T10:43:18;6.75;;;3.13;;
8100;SDS011;4093;53.470;9.832;2023-09-19T10:45:48;8.13;;;2.90;;
8100;SDS011;4093;53.470;9.832;2023-09-19T10:48:19;9.23;;;3.40;;
8100;SDS011;4093;53.470;9.832;2023-09-19T10:50:55;6.53;;;2.75;;
8100;SDS011;4093;53.470;9.832;2023-09-19T10:53:39;6.55;;;2.75;;
8100;SDS011;4093;53.470;9.832;2023-09-19T10:56:10;8.90;;;2.88;;
8100;SDS011;4093;53.470;9.832;2023-09-19T10:58:46;8.00;;;3.00;;
8100;SDS011;4093;53.470;9.832;2023-09-19T11:01:15;7.82;;;2.70;;
8100;SDS011;4093;53.470;9.832;2023-09-19T11:03:43;6.43;;;2.55;;
8100;SDS011;4093;53.470;9.832;2023-09-19T11:06:12;8.52;;;2.75;;
8100;SDS011;4093;53.470;9.832;2023-09-19T11:08:57;5.15;;;2.78;;
8100;SDS011;4093;53.470;9.832;2023-09-19T11:11:49;6.50;;;2.90;;
8100;SDS011;4093;53.470;9.832;2023-09-19T11:14:28;6.82;;;2.70;;
8100;SDS011;4093;53.470;9.832;2023-09-19T11:20:22;9.48;;;2.78;;
8100;SDS011;4093;53.470;9.832;2023-09-19T11:23:22;6.25;;;2.80;;
8100;SDS011;4093;53.470;9.832;2023-09-19T11:25:53;9.73;;;3.22;;
8100;SDS011;4093;53.470;9.832;2023-09-19T11:28:34;6.32;;;2.78;;
8100;SDS011;4093;53.470;9.832;2023-09-19T11:34:38;8.13;;;3.08;;
8100;SDS011;4093;53.470;9.832;2023-09-19T11:40:29;7.43;;;3.10;;
8100;SDS011;4093;53.470;9.832;2023-09-19T11:42:58;9.80;;;3.25;;
8100;SDS011;4093;53.470;9.832;2023-09-19T11:48:31;7.43;;;2.80;;
8100;SDS011;4093;53.470;9.832;2023-09-19T11:51:01;8.35;;;3.38;;
8100;SDS011;4093;53.470;9.832;2023-09-19T11:53:41;6.63;;;3.45;;
8100;SDS011;4093;53.470;9.832;2023-09-19T11:56:10;6.13;;;2.92;;
8100;SDS011;4093;53.470;9.832;2023-09-19T11:58:42;6.30;;;3.17;;
8100;SDS011;4093;53.470;9.832;2023-09-19T12:01:14;7.82;;;2.85;;
8100;SDS011;4093;53.470;9.832;2023-09-19T12:03:47;9.93;;;3.28;;
8100;SDS011;4093;53.470;9.832;2023-09-19T12:06:20;10.80;;;3.05;;
8100;SDS011;4093;53.470;9.832;2023-09-19T12:08:50;8.43;;;3.03;;
8100;SDS011;4093;53.470;9.832;2023-09-19T12:11:20;8.10;;;2.90;;
8100;SDS011;4093;53.470;9.832;2023-09-19T12:13:51;9.30;;;2.88;;
8100;SDS011;4093;53.470;9.832;2023-09-19T12:16:20;7.57;;;3.22;;
8100;SDS011;4093;53.470;9.832;2023-09-19T12:18:50;7.50;;;3.08;;
8100;SDS011;4093;53.470;9.832;2023-09-19T12:21:24;6.50;;;2.88;;
8100;SDS011;4093;53.470;9.832;2023-09-19T12:23:58;8.75;;;3.13;;
8100;SDS011;4093;53.470;9.832;2023-09-19T12:26:26;7.57;;;2.83;;
8100;SDS011;4093;53.470;9.832;2023-09-19T12:28:56;10.75;;;3.15;;
8100;SDS011;4093;53.470;9.832;2023-09-19T12:31:25;10.13;;;3.67;;
8100;SDS011;4093;53.470;9.832;2023-09-19T12:33:54;7.05;;;3.35;;
8100;SDS011;4093;53.470;9.832;2023-09-19T12:36:22;10.40;;;3.25;;
8100;SDS011;4093;53.470;9.832;2023-09-19T12:38:55;10.65;;;3.88;;
8100;SDS011;4093;53.470;9.832;2023-09-19T12:41:25;8.25;;;3.35;;
8100;SDS011;4093;53.470;9.832;2023-09-19T12:43:53;9.48;;;3.22;;
8100;SDS011;4093;53.470;9.832;2023-09-19T12:46:23;8.60;;;3.22;;
8100;SDS011;4093;53.470;9.832;2023-09-19T12:51:45;11.60;;;3.70;;
8100;SDS011;4093;53.470;9.832;2023-09-19T12:54:13;6.80;;;3.35;;
8100;SDS011;4093;53.470;9.832;2023-09-19T12:56:43;7.78;;;3.55;;
8100;SDS011;4093;53.470;9.832;2023-09-19T12:59:15;8.35;;;3.38;;
8100;SDS011;4093;53.470;9.832;2023-09-19T13:01:45;8.88;;;3.28;;
8100;SDS011;4093;53.470;9.832;2023-09-19T13:04:15;9.70;;;3.60;;
8100;SDS011;4093;53.470;9.832;2023-09-19T13:06:52;7.25;;;3.25;;
8100;SDS011;4093;53.470;9.832;2023-09-19T13:09:21;8.73;;;3.40;;
8100;SDS011;4093;53.470;9.832;2023-09-19T13:11:51;9.40;;;3.88;;
8100;SDS011;4093;53.470;9.832;2023-09-19T13:14:21;10.43;;;3.75;;
8100;SDS011;4093;53.470;9.832;2023-09-19T13:16:55;7.55;;;3.13;;
8100;SDS011;4093;53.470;9.832;2023-09-19T13:19:40;9.10;;;3.03;;
8100;SDS011;4093;53.470;9.832;2023-09-19T13:25:08;7.32;;;3.30;;
8100;SDS011;4093;53.470;9.832;2023-09-19T13:27:40;7.63;;;3.10;;
8100;SDS011;4093;53.470;9.832;2023-09-19T13:30:10;6.53;;;3.10;;
8100;SDS011;4093;53.470;9.832;2023-09-19T13:32:40;5.55;;;2.80;;
8100;SDS011;4093;53.470;9.832;2023-09-19T13:35:10;8.27;;;3.10;;
8100;SDS011;4093;53.470;9.832;2023-09-19T13:37:39;7.28;;;2.90;;
8100;SDS011;4093;53.470;9.832;2023-09-19T13:40:09;7.20;;;3.40;;
8100;SDS011;4093;53.470;9.832;2023-09-19T13:42:37;5.63;;;2.58;;
8100;SDS011;4093;53.470;9.832;2023-09-19T13:45:06;8.30;;;3.05;;
8100;SDS011;4093;53.470;9.832;2023-09-19T13:47:38;8.50;;;3.08;;
8100;SDS011;4093;53.470;9.832;2023-09-19T13:50:07;6.28;;;2.90;;
8100;SDS011;4093;53.470;9.832;2023-09-19T13:52:36;8.48;;;3.28;;
8100;SDS011;4093;53.470;9.832;2023-09-19T13:55:05;6.45;;;3.00;;
8100;SDS011;4093;53.470;9.832;2023-09-19T13:57:33;7.78;;;3.33;;
8100;SDS011;4093;53.470;9.832;2023-09-19T14:00:01;8.38;;;3.30;;
8100;SDS011;4093;53.470;9.832;2023-09-19T14:02:31;7.22;;;3.70;;
8100;SDS011;4093;53.470;9.832;2023-09-19T14:04:59;7.80;;;2.90;;
8100;SDS011;4093;53.470;9.832;2023-09-19T14:07:29;7.30;;;2.83;;
8100;SDS011;4093;53.470;9.832;2023-09-19T14:09:56;9.57;;;3.20;;
8100;SDS011;4093;53.470;9.832;2023-09-19T14:12:24;8.15;;;3.13;;
8100;SDS011;4093;53.470;9.832;2023-09-19T14:14:52;7.80;;;2.95;;
8100;SDS011;4093;53.470;9.832;2023-09-19T14:17:22;7.13;;;3.38;;
8100;SDS011;4093;53.470;9.832;2023-09-19T14:19:52;6.72;;;3.30;;
8100;SDS011;4093;53.470;9.832;2023-09-19T14:22:20;8.15;;;3.15;;
8100;SDS011;4093;53.470;9.832;2023-09-19T14:24:49;7.18;;;3.17;;
8100;SDS011;4093;53.470;9.832;2023-09-19T14:27:16;10.27;;;3.50;;
8100;SDS011;4093;53.470;9.832;2023-09-19T14:29:44;7.53;;;3.13;;
8100;SDS011;4093;53.470;9.832;2023-09-19T14:32:12;8.77;;;3.05;;
8100;SDS011;4093;53.470;9.832;2023-09-19T14:34:40;6.78;;;2.75;;
8100;SDS011;4093;53.470;9.832;2023-09-19T14:37:09;9.50;;;3.65;;
8100;SDS011;4093;53.470;9.832;2023-09-19T14:39:37;6.10;;;3.03;;
8100;SDS011;4093;53.470;9.832;2023-09-19T14:42:07;8.90;;;3.30;;
8100;SDS011;4093;53.470;9.832;2023-09-19T14:44:35;7.93;;;3.17;;
8100;SDS011;4093;53.470;9.832;2023-09-19T14:47:03;10.27;;;3.80;;
8100;SDS011;4093;53.470;9.832;2023-09-19T14:49:32;6.18;;;3.03;;
8100;SDS011;4093;53.470;9.832;2023-09-19T14:52:01;8.30;;;2.80;;
8100;SDS011;4093;53.470;9.832;2023-09-19T14:54:30;6.10;;;3.08;;
8100;SDS011;4093;53.470;9.832;2023-09-19T14:56:58;6.85;;;3.10;;
8100;SDS011;4093;53.470;9.832;2023-09-19T14:59:31;11.48;;;3.42;;
8100;SDS011;4093;53.470;9.832;2023-09-19T15:01:59;9.20;;;3.45;;
8100;SDS011;4093;53.470;9.832;2023-09-19T15:04:27;8.65;;;3.15;;
8100;SDS011;4093;53.470;9.832;2023-09-19T15:06:55;5.75;;;2.75;;
8100;SDS011;4093;53.470;9.832;2023-09-19T15:09:23;7.05;;;2.90;;
8100;SDS011;4093;53.470;9.832;2023-09-19T15:11:52;8.50;;;3.30;;
8100;SDS011;4093;53.470;9.832;2023-09-19T15:14:20;6.85;;;3.28;;
8100;SDS011;4093;53.470;9.832;2023-09-19T15:16:49;9.73;;;3.20;;
8100;SDS011;4093;53.470;9.832;2023-09-19T15:19:17;11.25;;;3.55;;
8100;SDS011;4093;53.470;9.832;2023-09-19T15:21:45;9.95;;;3.25;;
8100;SDS011;4093;53.470;9.832;2023-09-19T15:24:13;9.50;;;3.45;;
8100;SDS011;4093;53.470;9.832;2023-09-19T15:26:41;10.57;;;3.28;;
8100;SDS011;4093;53.470;9.832;2023-09-19T15:29:10;7.18;;;3.03;;
8100;SDS011;4093;53.470;9.832;2023-09-19T15:31:37;6.78;;;3.10;;
8100;SDS011;4093;53.470;9.832;2023-09-19T15:34:07;9.85;;;3.58;;
8100;SDS011;4093;53.470;9.832;2023-09-19T15:36:35;10.48;;;3.72;;
8100;SDS011;4093;53.470;9.832;2023-09-19T15:39:04;8.48;;;3.13;;
8100;SDS011;4093;53.470;9.832;2023-09-19T15:41:34;11.90;;;3.55;;
8100;SDS011;4093;53.470;9.832;2023-09-19T15:44:04;10.63;;;3.35;;
8100;SDS011;4093;53.470;9.832;2023-09-19T15:46:37;9.80;;;3.50;;
8100;SDS011;4093;53.470;9.832;2023-09-19T15:49:07;8.63;;;3.30;;
8100;SDS011;4093;53.470;9.832;2023-09-19T15:51:36;11.15;;;3.30;;
8100;SDS011;4093;53.470;9.832;2023-09-19T15:54:07;9.98;;;3.10;;